Bewolking Meer informatie Parkstad Weather Satellite


Neerslagradar Meer informatie Parkstad Rain Snow Radar


Onweersbuien Meer informatie Parkstad Lighntning


24/7 Weercamera Meer informatie Parkstad Weathercam


Natuurbrandrisico
CBI







Het weer levert geen direct gevaar op in Parkstad.    Er zijn geen waarschuwingen afgegeven voor Parkstad (045)

METAR rapporten vliegvelden

   
EHAM - Amsterdam
Gewijzigd: 24-11-2020 07:25
Grotendeels bewolkt  
Grotendeels bewolkt  
   Wind: Zuiden 18.5 km/h
Wind: Zuiden 18.5 km/h
Temperatuur: 8°C
Voelt als: 5°C
Dauwpunt: 7°C
Vochtigheid: 93%
Barometer: 1022 hPa
Satelliet beelden: Grotendeels bewolkt
Zicht: 7 km
Bewolking: Licht bewolkt 701 m,
Grotendeels bewolkt 1158 m
EHAM 240625Z 19010KT 7000 FEW023 BKN038 08/07 Q1022 NOSIG
EBAW - Antwerpen
Gewijzigd: 24-11-2020 07:20
Nevel, Gedeeltelijk bewolkt  
Nevel, Gedeeltelijk bewolkt  
   Wind: ZZO 7.4 km/h
Wind: ZZO 7.4 km/h
Temperatuur: 5°C
Voelt als: 3°C
Dauwpunt: 5°C
Vochtigheid: 100%
Barometer: 1024 hPa
Satelliet beelden: Gedeeltelijk bewolkt
Zicht: 5 km
Bewolking: Gedeeltelijk bewolkt 1311 m
EBAW 240620Z 16004KT 5000 BR SCT043 05/05 Q1024 TEMPO BKN012
EGLL - London
Gewijzigd: 24-11-2020 07:20
Bewolking  
Bewolking  
   Wind: ZZW 9.3 km/h
Wind: ZZW 9.3 km/h
Temperatuur: 10°C
Voelt als: 9°C
Dauwpunt: 9°C
Vochtigheid: 94%
Barometer: 1019 hPa
Satelliet beelden: Bewolking
Zicht: meer dan 10 km
Bewolking: Licht bewolkt 732 m,
Grotendeels bewolkt 884 m,
Bewolking 1158 m
EGLL 240620Z AUTO 21005KT 9999 FEW024 BKN029 OVC038 10/09 Q1019 NOSIG
ELLX - Luxemburg
Gewijzigd: 24-11-2020 07:20
Mist, Grotendeels bewolkt  
Mist, Grotendeels bewolkt  
   Wind: Oosten 5.6 km/h
Wind: Oosten 5.6 km/h
Temperatuur: 4°C
Voelt als: 3°C
Dauwpunt: 4°C
Vochtigheid: 100%
Barometer: 1025 hPa
Satelliet beelden: Grotendeels bewolkt
Zicht: 1 km
Bewolking: Grotendeels bewolkt 31 m
ELLX 240620Z 09003KT 040V130 0800 R24/0375V0800D FG BKN001 04/04 Q1025 NOSIG
EDDT - Berlijn
Gewijzigd: 09-11-2020 07:50
Verouderd
Nevel, Bewolking  
Nevel, Bewolking  
   Wind: Oosten 11.1 km/h
Wind: Oosten 11.1 km/h
Temperatuur: 6°C
Voelt als: 4°C
Dauwpunt: 5°C
Vochtigheid: 93%
Barometer: 1027 hPa
Satelliet beelden: Bewolking
Zicht: 3 km
Bewolking: Bewolking 91 m
EDDT 090650Z 09006KT 050V120 3000 BR OVC003 06/05 Q1027
EDDM - München
Gewijzigd: 24-11-2020 07:20
Bewolking  
Bewolking  
   Wind: Oosten 13 km/h
Wind: Oosten 13 km/h
Temperatuur: 4°C
Voelt als: 1°C
Dauwpunt: 3°C
Vochtigheid: 93%
Barometer: 1027 hPa
Satelliet beelden: Bewolking
Zicht: 6 km
Bewolking: Grotendeels bewolkt 152 m,
Bewolking 213 m
EDDM 240620Z 10007KT 6000 BKN005 OVC007 04/03 Q1027 TEMPO 4500 BR
LFPO - Parijs
Gewijzigd: 24-11-2020 07:00
Patches of, Mist, Nevel, Gedeeltelijk bewolkt  
Patches of, Mist, Nevel, Gedeeltelijk bewolkt  
   Wind: ZO 1.9 km/h
Wind: ZO 1.9 km/h
Temperatuur: 5°C
Dauwpunt: 5°C
Vochtigheid: 100%
Barometer: 1024 hPa
Satelliet beelden: Gedeeltelijk bewolkt
Zicht: 4 km
Bewolking: Licht bewolkt 61 m,
Gedeeltelijk bewolkt 7925 m
LFPO 240600Z 13001KT 4000 0600N R02/0900U R25/0800N R07/0450D R24/0700D R06/0375N BCFG BR FEW002 SCT260 05/05 Q1024 TEMPO 0500 BCFG
EDDL - Düsseldorf
Gewijzigd: 24-11-2020 07:20
Grotendeels bewolkt  
Grotendeels bewolkt  
   Wind: ZZO 16.7 km/h
Wind: ZZO 16.7 km/h
Temperatuur: 5°C
Voelt als: 2°C
Dauwpunt: 5°C
Vochtigheid: 100%
Barometer: 1025 hPa
Satelliet beelden: Grotendeels bewolkt
Zicht: 9 km
Bewolking: Licht bewolkt 152 m,
Grotendeels bewolkt 701 m
EDDL 240620Z 16009KT 9000 FEW005 BKN023 05/05 Q1025 NOSIG
EDDK - Köln/Bonn Duitsland
Gewijzigd: 24-11-2020 07:20
Grotendeels bewolkt  
Grotendeels bewolkt  
   Wind: ZO 13 km/h
Wind: ZO 13 km/h
Temperatuur: 6°C
Voelt als: 3°C
Dauwpunt: 5°C
Vochtigheid: 93%
Barometer: 1026 hPa
Satelliet beelden: Grotendeels bewolkt
Zicht: meer dan 10 km
Bewolking: Licht bewolkt 152 m,
Grotendeels bewolkt 1433 m
EDDK 240620Z 13007KT 090V160 9999 FEW005 BKN047 06/05 Q1026 NOSIG
TNCA - Oranjestad Aruba
Gewijzigd: 24-11-2020 07:00
Gedeeltelijk bewolkt  
Gedeeltelijk bewolkt  
   Wind: Oosten 22.2 km/h
Wind: Oosten 22.2 km/h
Temperatuur: 27°C
Gevoelstemperatuur: 31°C
Dauwpunt: 25°C
Vochtigheid: 89%
Barometer: 1010 hPa
Satelliet beelden: Gedeeltelijk bewolkt
Zicht: meer dan 10 km
Bewolking: Gedeeltelijk bewolkt 457 m
TNCA 240600Z 09012KT 9999 SCT015 27/25 Q1010 RERA NOSIG
TNCC - Willemstad Curacao
Gewijzigd: 24-11-2020 07:00
Helder  
Helder  
   Wind: Oosten 22.2 km/h
Wind: Oosten 22.2 km/h
Temperatuur: 28°C
Gevoelstemperatuur: 31°C
Dauwpunt: 23°C
Vochtigheid: 74%
Barometer: 1010 hPa
Satelliet beelden: Helder
Zicht: meer dan 10 km
Bewolking: Helder
TNCC 240600Z AUTO 10012KT 9999 NCD 28/23 Q1010
LEAL - La Nucia Spanje
Gewijzigd: 24-11-2020 07:30
Helder  
Helder  
   Wind: Westen 9.3 km/h
Wind: Westen 9.3 km/h
Temperatuur: 8°C
Voelt als: 7°C
Dauwpunt: 6°C
Vochtigheid: 87%
Barometer: 1025 hPa
Zicht: meer dan 10 km
Bewolking: Helder
LEAL 240630Z 27005KT CAVOK 08/06 Q1025 NOSIG

Script ontwikkeld door  Saratoga-weather.org Aangepast voor de template door  Weerstation Leuven

U vindt ons ook hier:

Het Weer Aktueel

WOW Nederland KNMI

Vereniging voor Weerkunde en Klimatologie

UK Met Office Weather Observation Website (WOW)

WeatherCloud

Weather Underground

Awekas

MeteoMap.Cloud

HAMweather, WeatherForYou, PWS Weather

Citizen Weather Observer Program (CWOP)

Apparatuur in gebruik:

Hardwareleverancier
Weerhuisje

Weerstation
Vantage Pro2+ UV

Weercomputer's
alix3d2 & wl330n

Weerprogramma's
Smartbedded

Satelliet NOAA's
WRX137 & KX137

Satelliet Eumetsat
Ayecka SR1 & Triax

Bliksemdetectie
Boltek StormTracker

Webleverancier
F-Service

Weerhuisje

Vantage Pro2+ UV

alix3d2 & wl330n

Smartbedded

WRX137 & KX137

Ayecka SR1 & Triax

Boltek StormTracker

F-Service